createdAt,value
2022-11-22T06:31:25.759Z,77.47
2022-11-22T06:36:47.110Z,77.41
2022-11-22T06:42:07.999Z,77.39
2022-11-22T06:47:28.766Z,77.58
2022-11-22T06:52:53.388Z,78.38
2022-11-22T06:58:14.589Z,77.96
2022-11-22T07:03:36.741Z,78.14
2022-11-22T07:08:59.359Z,78.35
2022-11-22T07:14:20.480Z,78.06
2022-11-22T07:19:41.325Z,78.39
2022-11-22T07:25:02.274Z,78.30
2022-11-22T07:30:23.016Z,78.36
2022-11-22T07:35:43.868Z,78.72
2022-11-22T07:41:05.714Z,78.72
2022-11-22T07:46:31.306Z,78.31
2022-11-22T07:51:53.572Z,78.08
2022-11-22T07:57:14.203Z,78.66
2022-11-22T08:02:37.412Z,78.65
2022-11-22T08:07:58.576Z,78.97
2022-11-22T08:13:19.279Z,78.83
2022-11-22T08:18:41.312Z,78.39
2022-11-22T08:24:02.239Z,78.97
2022-11-22T08:29:23.151Z,78.58
2022-11-22T08:34:47.138Z,78.36
2022-11-22T08:40:09.318Z,78.82
2022-11-22T08:45:30.251Z,78.46
2022-11-22T08:50:53.052Z,78.96
2022-11-22T08:56:15.765Z,78.74
2022-11-22T09:01:37.174Z,78.69
2022-11-22T09:12:44.595Z,78.38
2022-11-22T09:18:05.731Z,78.39
2022-11-22T09:23:26.612Z,78.72
2022-11-22T09:28:47.763Z,78.57
2022-11-22T09:34:08.574Z,79.08
2022-11-22T09:39:29.813Z,78.75
2022-11-22T09:45:10.787Z,79.07
2022-11-22T09:50:40.539Z,78.67
2022-11-22T09:56:07.787Z,79.20
2022-11-22T10:01:34.936Z,78.87
2022-11-22T10:07:00.476Z,78.80
2022-11-22T10:12:52.856Z,78.85
2022-11-22T10:18:16.784Z,78.74
2022-11-22T10:23:37.887Z,78.90
2022-11-22T10:29:04.862Z,78.49
2022-11-22T10:34:55.651Z,78.96
2022-11-22T10:40:28.233Z,79.03
2022-11-22T10:46:01.041Z,78.79
2022-11-22T10:51:40.469Z,78.81
2022-11-22T10:57:25.963Z,78.51
2022-11-22T11:02:47.022Z,78.80
2022-11-22T11:08:39.192Z,78.91
2022-11-22T11:14:05.726Z,78.75
2022-11-22T11:19:30.643Z,78.61
2022-11-22T11:24:52.573Z,79.06
2022-11-22T11:30:13.807Z,78.34
2022-11-22T11:35:34.846Z,78.94
2022-11-22T11:40:55.601Z,78.61
2022-11-22T11:46:28.364Z,78.77
2022-11-22T11:52:18.975Z,79.07
2022-11-22T11:58:21.597Z,78.95
2022-11-22T12:03:42.579Z,79.08
2022-11-22T12:09:26.668Z,79.27
2022-11-22T12:15:10.786Z,78.91
2022-11-22T12:20:59.781Z,78.83
2022-11-22T12:26:21.205Z,79.18
2022-11-22T12:32:15.142Z,78.78
2022-11-22T12:37:42.229Z,78.60
2022-11-22T12:43:11.486Z,79.18
2022-11-22T12:48:50.696Z,78.47
2022-11-22T12:54:17.136Z,78.60
2022-11-22T12:59:46.176Z,79.09
2022-11-22T13:05:26.763Z,78.85
2022-11-22T13:10:59.919Z,78.66
2022-11-22T13:16:20.558Z,79.10
2022-11-22T13:21:44.462Z,78.68
2022-11-22T13:27:11.137Z,78.64
2022-11-22T13:32:34.449Z,78.96
2022-11-22T13:37:58.480Z,78.70
2022-11-22T13:43:22.579Z,79.02
2022-11-22T13:48:43.884Z,79.58
2022-11-22T13:54:46.411Z,79.40
2022-11-22T14:00:16.676Z,79.41
2022-11-22T14:05:42.067Z,79.40
2022-11-22T14:11:08.888Z,79.02
2022-11-22T14:16:40.019Z,79.09
2022-11-22T14:22:19.275Z,78.82
2022-11-22T14:27:43.123Z,78.85
2022-11-22T14:33:06.501Z,78.78
2022-11-22T14:38:32.046Z,79.32
2022-11-22T14:43:54.901Z,79.46
2022-11-22T14:49:30.205Z,79.48
2022-11-22T14:54:59.321Z,79.72
2022-11-22T15:00:22.799Z,79.57
2022-11-22T15:09:10.677Z,79.43
2022-11-22T15:12:59.907Z,79.13
2022-11-22T15:58:56.840Z,79.65
2022-11-22T16:04:31.878Z,79.43
2022-11-22T16:09:52.603Z,79.83
2022-11-22T16:15:25.507Z,79.75
2022-11-22T16:21:15.556Z,79.73
2022-11-22T16:26:36.543Z,79.57
2022-11-22T16:32:02.708Z,79.54
2022-11-22T16:37:37.487Z,79.80
2022-11-22T16:43:08.263Z,79.55
2022-11-22T16:48:32.628Z,79.99
2022-11-22T16:53:54.747Z,79.62
2022-11-22T16:59:15.974Z,79.69
2022-11-22T17:04:40.858Z,79.52
2022-11-22T17:10:03.083Z,79.79
2022-11-22T17:15:25.868Z,79.65
2022-11-22T17:20:48.053Z,80.04
2022-11-22T17:26:10.738Z,79.77
2022-11-22T17:31:31.672Z,79.74
2022-11-22T17:36:52.412Z,79.79
2022-11-22T17:42:15.251Z,79.88
2022-11-22T17:47:36.067Z,79.88
2022-11-22T17:52:56.940Z,80.30
2022-11-22T17:58:17.835Z,79.84
2022-11-22T18:03:39.886Z,79.81
2022-11-22T18:09:01.223Z,79.73
2022-11-22T18:14:23.352Z,79.90
2022-11-22T18:19:44.472Z,79.80
2022-11-22T18:25:05.836Z,79.67
2022-11-22T18:30:26.646Z,80.09
2022-11-22T18:35:56.197Z,80.04
2022-11-22T18:41:18.128Z,79.92
2022-11-22T18:46:39.844Z,80.21
2022-11-22T18:52:00.944Z,79.91
2022-11-22T18:57:22.125Z,80.08
2022-11-22T19:02:42.885Z,79.79
2022-11-22T19:08:03.786Z,80.38
2022-11-22T19:13:24.604Z,80.16
2022-11-22T19:18:45.595Z,79.75
2022-11-22T19:24:06.532Z,79.84
2022-11-22T19:29:27.592Z,80.14
2022-11-22T19:34:48.311Z,79.91
2022-11-22T19:40:11.106Z,80.16
2022-11-22T19:45:32.127Z,80.28
2022-11-22T19:50:53.104Z,80.17
2022-11-22T19:56:17.441Z,80.20
2022-11-22T20:01:39.785Z,80.12
2022-11-22T20:07:00.794Z,80.23
2022-11-22T20:12:21.709Z,79.92
2022-11-22T20:17:42.442Z,80.24
2022-11-22T20:23:03.259Z,80.17
2022-11-22T20:28:24.142Z,80.17
2022-11-22T20:33:47.885Z,80.31
2022-11-22T20:39:10.633Z,79.92
2022-11-22T20:44:33.976Z,80.11
2022-11-22T20:49:54.811Z,80.15
2022-11-22T20:55:16.127Z,80.55
2022-11-22T21:00:38.456Z,80.40
2022-11-22T21:06:00.968Z,80.01
2022-11-22T21:11:24.518Z,80.32
2022-11-22T21:16:45.526Z,80.22
2022-11-22T21:22:06.832Z,80.11
2022-11-22T21:27:27.696Z,80.21
2022-11-22T21:32:48.661Z,80.25
2022-11-22T21:38:09.728Z,80.18
2022-11-22T21:43:31.211Z,80.07
2022-11-22T21:48:52.413Z,80.27
2022-11-22T21:54:13.592Z,80.25
2022-11-22T21:59:34.508Z,80.26
2022-11-22T22:04:55.307Z,80.43
2022-11-22T22:10:16.144Z,80.41
2022-11-22T22:15:39.202Z,80.26
2022-11-22T22:21:05.311Z,80.17
2022-11-22T22:26:26.507Z,80.14
2022-11-22T22:31:47.607Z,80.14
2022-11-22T22:37:08.308Z,80.28
2022-11-22T22:42:29.269Z,80.34
